Time;durP1;ratioP1;P1;durP2;ratioP2;P2;SDS_P1;SDS_P2;PMS_P1;PMS_P2;Temp;Humidity;BMP_temperature;BMP_pressure;BME280_temperature;BME280_humidity;BME280_pressure;Samples;Min_cycle;Max_cycle;Signal;HPM_P1;HPM_P2
2022/11/12 00:02:12;;;;;;;15.60;11.93;;;6.60;99.90;;;;;;5072319;28;20050;-72
2022/11/12 00:04:38;;;;;;;16.30;10.75;;;6.60;99.90;;;;;;5072731;28;20032;-73
2022/11/12 00:07:03;;;;;;;17.45;12.93;;;6.60;99.90;;;;;;5072624;28;20025;-72
2022/11/12 00:09:29;;;;;;;14.82;10.75;;;6.60;99.90;;;;;;5071867;28;20070;-73
2022/11/12 00:11:54;;;;;;;15.57;11.98;;;6.50;99.90;;;;;;5072199;28;20115;-71
2022/11/12 00:14:20;;;;;;;13.90;10.77;;;6.50;99.90;;;;;;5072601;28;20059;-72
2022/11/12 00:16:45;;;;;;;15.27;11.15;;;6.50;99.90;;;;;;5071606;28;20059;-72
2022/11/12 00:19:11;;;;;;;13.40;11.25;;;6.50;99.90;;;;;;5072175;28;20036;-72
2022/11/12 00:21:37;;;;;;;18.27;11.98;;;6.50;99.90;;;;;;5071350;28;20357;-72
2022/11/12 00:24:02;;;;;;;20.15;12.50;;;6.50;99.90;;;;;;5071807;28;20028;-72
2022/11/12 00:26:28;;;;;;;19.05;11.32;;;6.40;99.90;;;;;;5071653;28;20017;-72
2022/11/12 00:28:54;;;;;;;15.98;11.70;;;6.40;99.90;;;;;;5061317;28;20091;-72
2022/11/12 00:31:20;;;;;;;19.98;12.00;;;6.30;99.90;;;;;;5068092;28;20381;-72
2022/11/12 00:33:45;;;;;;;18.60;12.63;;;6.40;99.90;;;;;;5071640;28;20031;-71
2022/11/12 00:36:11;;;;;;;18.30;12.05;;;6.30;99.90;;;;;;5071929;28;20521;-73
2022/11/12 00:38:37;;;;;;;15.75;11.88;;;6.30;99.90;;;;;;5070218;28;20055;-72
2022/11/12 00:41:02;;;;;;;18.25;11.65;;;6.30;99.90;;;;;;5071927;28;20415;-72
2022/11/12 00:43:28;;;;;;;21.77;12.18;;;6.30;99.90;;;;;;5071341;28;20435;-71
2022/11/12 00:45:53;;;;;;;23.05;12.43;;;6.30;99.90;;;;;;5072033;28;20480;-72
2022/11/12 00:48:22;;;;;;;16.95;11.60;;;6.30;99.90;;;;;;5071497;28;20032;-72
2022/11/12 00:50:47;;;;;;;17.05;11.93;;;6.20;99.90;;;;;;5070903;28;20037;-72
2022/11/12 00:53:13;;;;;;;18.80;12.32;;;6.30;99.90;;;;;;5073797;28;20021;-71
2022/11/12 00:55:41;;;;;;;22.60;12.48;;;6.20;99.90;;;;;;5072847;28;20043;-72
2022/11/12 00:58:07;;;;;;;18.25;13.32;;;6.20;99.90;;;;;;5071682;28;20029;-72
2022/11/12 01:00:32;;;;;;;23.10;12.65;;;6.20;99.90;;;;;;5071627;28;20024;-72
2022/11/12 01:02:58;;;;;;;18.17;12.73;;;6.20;99.90;;;;;;5071637;28;20021;-72
2022/11/12 01:05:23;;;;;;;19.25;13.07;;;6.30;99.90;;;;;;5071486;28;20013;-72
2022/11/12 01:07:49;;;;;;;18.52;13.07;;;6.20;99.90;;;;;;5072209;28;20036;-72
2022/11/12 01:10:14;;;;;;;18.02;12.35;;;6.30;99.90;;;;;;5071465;28;20035;-72
2022/11/12 01:12:40;;;;;;;29.92;14.05;;;6.30;99.90;;;;;;5071444;28;20036;-72
2022/11/12 01:15:06;;;;;;;30.08;13.18;;;6.30;99.90;;;;;;5071567;28;20468;-73
2022/11/12 01:17:32;;;;;;;35.47;13.43;;;6.30;99.90;;;;;;5070143;28;20039;-72
2022/11/12 01:19:57;;;;;;;26.70;12.27;;;6.30;99.90;;;;;;5071476;28;20028;-72
2022/11/12 01:22:23;;;;;;;45.00;13.48;;;6.30;99.90;;;;;;5071801;28;20028;-72
2022/11/12 01:24:49;;;;;;;45.90;11.85;;;6.30;99.90;;;;;;5071331;28;20123;-72
2022/11/12 01:27:15;;;;;;;24.70;10.73;;;6.30;99.90;;;;;;5070687;28;20024;-71
2022/11/12 01:29:40;;;;;;;41.40;12.93;;;6.30;99.90;;;;;;5056522;28;20050;-71
2022/11/12 01:32:06;;;;;;;14.98;12.23;;;6.30;99.90;;;;;;5071474;28;20025;-71
2022/11/12 01:34:32;;;;;;;14.38;11.43;;;6.30;99.90;;;;;;5074607;28;20068;-72
2022/11/12 01:36:58;;;;;;;16.52;11.75;;;6.30;99.90;;;;;;5075427;28;20048;-72
2022/11/12 01:39:23;;;;;;;15.88;11.85;;;6.40;99.90;;;;;;5075588;28;20041;-73
2022/11/12 01:41:49;;;;;;;16.85;12.18;;;6.50;99.90;;;;;;5074989;28;20384;-72
2022/11/12 01:44:19;;;;;;;13.50;11.75;;;6.50;99.90;;;;;;5075263;28;20101;-72
2022/11/12 01:46:53;;;;;;;19.75;14.02;;;6.60;99.90;;;;;;5074917;28;20031;-72
2022/11/12 01:49:57;;;;;;;13.98;11.48;;;6.60;99.90;;;;;;5075688;28;20554;-72
2022/11/12 01:52:36;;;;;;;14.85;11.95;;;6.60;99.90;;;;;;5043129;28;20477;-72
2022/11/12 01:55:17;;;;;;;15.43;12.25;;;6.60;99.90;;;;;;5075004;28;20413;-72
2022/11/12 01:57:49;;;;;;;15.27;11.57;;;6.70;99.90;;;;;;5075738;28;20426;-72
2022/11/12 02:00:15;;;;;;;17.65;13.05;;;6.70;99.90;;;;;;5075932;28;20047;-72
2022/11/12 02:02:43;;;;;;;17.92;12.75;;;6.70;99.90;;;;;;5075540;28;20411;-72
2022/11/12 02:05:10;;;;;;;16.98;12.55;;;6.70;99.90;;;;;;5075443;28;20110;-71
2022/11/12 02:07:39;;;;;;;14.55;11.20;;;6.60;99.90;;;;;;5075776;28;20024;-71
2022/11/12 02:10:06;;;;;;;28.67;12.35;;;6.60;99.90;;;;;;5075825;28;20031;-71
2022/11/12 02:15:16;;;;;;;27.70;12.40;;;6.50;99.90;;;;;;5075521;28;20598;-72
2022/11/12 02:17:42;;;;;;;23.55;11.20;;;6.40;99.90;;;;;;5075790;28;20028;-72
2022/11/12 02:20:12;;;;;;;39.50;12.20;;;6.40;99.90;;;;;;5076087;28;20392;-72
2022/11/12 02:22:38;;;;;;;15.25;12.10;;;6.30;99.90;;;;;;5073966;28;20043;-71
2022/11/12 02:25:04;;;;;;;22.38;11.65;;;6.20;99.90;;;;;;5075338;28;20473;-72
2022/11/12 02:27:30;;;;;;;21.45;11.73;;;6.20;99.90;;;;;;5074221;28;20532;-72
2022/11/12 02:29:56;;;;;;;12.38;11.07;;;6.10;99.90;;;;;;5060498;28;20178;-72
2022/11/12 02:32:21;;;;;;;20.08;12.13;;;6.10;99.90;;;;;;5075310;28;20103;-72
2022/11/12 02:34:53;;;;;;;13.52;11.73;;;6.00;99.90;;;;;;5074898;28;20107;-72
2022/11/12 02:37:18;;;;;;;18.75;12.88;;;6.00;99.90;;;;;;5074776;28;20021;-71
2022/11/12 02:39:44;;;;;;;16.38;13.15;;;6.00;99.90;;;;;;5074739;28;20044;-71
2022/11/12 02:42:11;;;;;;;21.52;12.35;;;5.90;99.90;;;;;;5075715;28;20024;-72
2022/11/12 02:44:37;;;;;;;16.85;11.85;;;6.00;99.90;;;;;;5065685;28;20126;-72
2022/11/12 02:47:02;;;;;;;18.92;11.75;;;5.90;99.90;;;;;;5074498;28;20467;-72
2022/11/12 02:49:28;;;;;;;23.27;13.52;;;5.90;99.90;;;;;;5066830;28;20469;-72
2022/11/12 02:51:54;;;;;;;38.58;15.93;;;5.90;99.90;;;;;;5068186;28;20021;-72
2022/11/12 02:54:19;;;;;;;32.50;14.43;;;5.90;99.90;;;;;;5061846;28;20100;-72
2022/11/12 02:56:45;;;;;;;25.67;13.65;;;5.80;99.90;;;;;;5072791;28;20031;-72
2022/11/12 02:59:10;;;;;;;14.45;12.95;;;5.80;99.90;;;;;;5073887;28;20043;-72
2022/11/12 03:01:36;;;;;;;20.98;13.77;;;5.80;99.90;;;;;;5071926;28;20029;-72
2022/11/12 03:04:01;;;;;;;21.70;15.05;;;5.80;99.90;;;;;;5062658;28;20024;-72
2022/11/12 03:06:27;;;;;;;27.33;13.85;;;5.80;99.90;;;;;;5073998;28;20031;-71
2022/11/12 03:08:52;;;;;;;41.17;15.70;;;5.80;99.90;;;;;;5074030;28;20107;-71
2022/11/12 03:11:18;;;;;;;29.48;15.23;;;5.90;99.90;;;;;;5074053;28;20017;-72
2022/11/12 03:13:43;;;;;;;35.80;13.68;;;5.80;99.90;;;;;;5073801;28;20017;-71
2022/11/12 03:16:09;;;;;;;23.23;13.93;;;5.80;99.90;;;;;;5074279;28;20036;-72
2022/11/12 03:18:36;;;;;;;25.25;14.52;;;5.80;99.90;;;;;;5071657;28;20028;-72
2022/11/12 03:21:01;;;;;;;30.52;15.60;;;5.80;99.90;;;;;;5062185;28;20396;-72
2022/11/12 03:23:27;;;;;;;21.33;16.08;;;5.80;99.90;;;;;;5073727;28;20028;-72
2022/11/12 03:25:53;;;;;;;43.85;15.50;;;5.80;99.90;;;;;;5074137;28;20122;-72
2022/11/12 03:28:18;;;;;;;43.17;15.32;;;6.70;99.90;;;;;;5074871;28;20111;-72
2022/11/12 03:30:44;;;;;;;27.95;14.20;;;5.80;99.90;;;;;;5073971;28;20124;-72
2022/11/12 03:33:12;;;;;;;25.73;14.63;;;5.80;99.90;;;;;;5073563;28;20126;-72
2022/11/12 03:35:38;;;;;;;21.40;13.23;;;5.80;99.90;;;;;;5073298;28;20024;-71
2022/11/12 03:38:05;;;;;;;119.25;18.13;;;5.80;99.90;;;;;;5075892;28;20029;-72
2022/11/12 03:40:32;;;;;;;57.42;15.65;;;5.80;99.90;;;;;;5081743;28;20020;-71
2022/11/12 03:42:58;;;;;;;20.65;12.93;;;5.80;99.90;;;;;;5070706;28;20050;-72
2022/11/12 03:45:26;;;;;;;48.08;14.70;;;5.80;99.90;;;;;;5083929;28;20106;-72
2022/11/12 03:47:54;;;;;;;19.23;13.27;;;5.80;99.90;;;;;;5084746;28;20021;-71
2022/11/12 03:50:22;;;;;;;97.32;15.77;;;5.80;99.90;;;;;;5082897;28;20028;-72
2022/11/12 03:52:50;;;;;;;57.30;13.77;;;5.80;99.90;;;;;;5082157;28;20038;-72
2022/11/12 03:55:18;;;;;;;49.17;13.77;;;5.80;99.90;;;;;;5073241;28;20059;-72
2022/11/12 03:57:46;;;;;;;27.70;12.68;;;5.80;99.90;;;;;;5083463;28;20032;-71
2022/11/12 04:00:19;;;;;;;42.33;13.05;;;5.80;99.90;;;;;;5081993;28;20028;-72
2022/11/12 04:02:44;;;;;;;36.60;13.20;;;5.80;99.90;;;;;;5077064;28;20123;-72
2022/11/12 04:10:48;;;;;;;71.90;14.82;;;5.70;99.90;;;;;;5076178;28;20086;-71
2022/11/12 04:13:28;;;;;;;36.83;13.25;;;5.70;99.90;;;;;;5073652;28;20067;-73
2022/11/12 04:21:49;;;;;;;28.17;12.82;;;5.60;99.90;;;;;;5074217;28;20043;-71
2022/11/12 04:27:00;;;;;;;38.40;13.63;;;5.50;99.90;;;;;;5072882;28;20499;-72
2022/11/12 04:32:09;;;;;;;30.05;13.95;;;5.50;99.90;;;;;;5072693;28;20043;-73
2022/11/12 04:34:35;;;;;;;44.25;14.70;;;5.50;99.90;;;;;;5072601;28;20469;-73
2022/11/12 04:37:02;;;;;;;20.75;14.68;;;5.50;99.90;;;;;;5072134;28;20024;-71
2022/11/12 04:39:28;;;;;;;25.15;14.48;;;5.40;99.90;;;;;;5072407;28;20032;-72
2022/11/12 04:47:21;;;;;;;17.42;14.60;;;5.40;99.90;;;;;;5072220;28;20028;-72
2022/11/12 04:49:47;;;;;;;22.08;14.07;;;5.40;99.90;;;;;;5071749;28;20020;-72
2022/11/12 04:52:12;;;;;;;19.65;14.88;;;5.30;99.90;;;;;;5072161;28;20032;-71
2022/11/12 04:54:38;;;;;;;22.63;15.55;;;5.40;99.90;;;;;;5057851;28;20085;-72
2022/11/12 04:57:07;;;;;;;19.80;15.60;;;5.30;99.90;;;;;;5072029;28;20025;-71
2022/11/12 04:59:32;;;;;;;17.77;14.95;;;5.30;99.90;;;;;;5072630;28;20028;-72
2022/11/12 05:01:58;;;;;;;23.10;15.48;;;5.30;99.90;;;;;;5072654;28;20100;-72
2022/11/12 05:04:26;;;;;;;19.88;14.63;;;5.30;99.90;;;;;;5071988;28;20020;-71
2022/11/12 05:06:54;;;;;;;19.98;14.80;;;5.20;99.90;;;;;;5072158;28;20380;-71
2022/11/12 05:09:22;;;;;;;22.02;14.57;;;5.20;99.90;;;;;;5072008;28;20468;-72
2022/11/12 05:11:51;;;;;;;21.63;16.00;;;5.20;99.90;;;;;;5071537;28;20329;-72
2022/11/12 05:14:17;;;;;;;17.63;14.82;;;5.20;99.90;;;;;;5072618;28;20036;-72
2022/11/12 05:16:44;;;;;;;19.27;15.20;;;5.20;99.90;;;;;;5071799;28;20028;-71
2022/11/12 05:19:10;;;;;;;18.52;14.43;;;5.10;99.90;;;;;;5071585;28;20048;-72
2022/11/12 05:24:20;;;;;;;22.88;15.50;;;5.10;99.90;;;;;;5072094;28;20043;-72
2022/11/12 05:26:45;;;;;;;18.65;14.85;;;5.10;99.90;;;;;;5071186;28;20099;-72
2022/11/12 05:29:11;;;;;;;23.75;15.95;;;5.10;99.90;;;;;;5071489;28;20044;-72
2022/11/12 05:31:36;;;;;;;16.90;14.13;;;5.10;99.90;;;;;;5071719;28;20108;-71
2022/11/12 05:34:02;;;;;;;19.25;14.80;;;5.10;99.90;;;;;;5071531;28;20048;-72
2022/11/12 05:36:27;;;;;;;20.13;15.23;;;5.10;99.90;;;;;;5071366;28;20484;-72
2022/11/12 05:38:53;;;;;;;25.95;18.55;;;5.10;99.90;;;;;;5071315;28;20071;-71
2022/11/12 05:41:19;;;;;;;20.23;16.05;;;5.10;99.90;;;;;;5072019;28;20032;-71
2022/11/12 05:43:44;;;;;;;19.67;15.82;;;5.10;99.90;;;;;;5071333;28;20170;-72
2022/11/12 05:46:10;;;;;;;24.67;16.92;;;5.20;99.90;;;;;;5071525;28;20017;-71
2022/11/12 05:48:36;;;;;;;29.77;16.70;;;5.20;99.90;;;;;;5071627;28;20056;-72
2022/11/12 05:51:01;;;;;;;26.52;17.77;;;5.10;99.90;;;;;;5071405;28;20487;-71
2022/11/12 05:53:27;;;;;;;24.55;17.80;;;5.20;99.90;;;;;;5063461;28;20017;-71
2022/11/12 05:56:04;;;;;;;20.65;17.35;;;5.20;99.90;;;;;;5064971;28;20111;-72
2022/11/12 05:58:31;;;;;;;23.77;17.95;;;5.20;99.90;;;;;;5058662;28;20519;-72
2022/11/12 06:00:57;;;;;;;24.65;17.20;;;5.20;99.90;;;;;;5068147;28;20030;-73
2022/11/12 06:03:23;;;;;;;27.85;18.67;;;5.30;99.90;;;;;;5074487;28;20028;-72
2022/11/12 06:05:49;;;;;;;25.83;17.48;;;5.20;99.90;;;;;;5073693;28;20377;-71
2022/11/12 06:08:14;;;;;;;24.30;18.77;;;5.20;99.90;;;;;;5070839;28;20025;-72
2022/11/12 06:10:40;;;;;;;22.15;17.63;;;5.20;99.90;;;;;;5069576;28;20510;-72
2022/11/12 06:13:06;;;;;;;27.75;17.48;;;5.20;99.90;;;;;;5071045;28;20021;-74
2022/11/12 06:15:32;;;;;;;20.90;16.50;;;5.20;99.90;;;;;;5068913;28;20021;-72
2022/11/12 06:17:57;;;;;;;26.52;18.10;;;5.20;99.90;;;;;;5070968;28;20078;-73
2022/11/12 06:20:23;;;;;;;22.67;17.30;;;5.20;99.90;;;;;;5074034;28;20021;-73
2022/11/12 06:22:49;;;;;;;25.10;18.63;;;5.20;99.90;;;;;;5073359;28;20056;-72
2022/11/12 06:25:21;;;;;;;27.73;19.02;;;5.10;99.90;;;;;;5074420;28;20021;-73
2022/11/12 06:27:46;;;;;;;26.00;18.52;;;5.10;99.90;;;;;;5072047;28;20033;-73
2022/11/12 06:30:12;;;;;;;26.83;17.33;;;5.20;99.90;;;;;;5074450;28;20074;-72
2022/11/12 06:32:38;;;;;;;26.33;17.50;;;5.10;99.90;;;;;;5074920;28;20028;-73
2022/11/12 06:35:04;;;;;;;25.50;16.92;;;5.10;99.90;;;;;;5071266;28;20016;-72
2022/11/12 06:37:29;;;;;;;26.08;17.33;;;5.10;99.90;;;;;;5072639;28;20370;-72
2022/11/12 06:39:56;;;;;;;23.10;17.20;;;5.10;99.90;;;;;;5072273;28;20032;-72
2022/11/12 06:42:22;;;;;;;26.23;18.52;;;5.10;99.90;;;;;;5075483;28;20443;-73
2022/11/12 06:44:47;;;;;;;26.98;18.05;;;5.10;99.90;;;;;;5072914;28;20111;-72
2022/11/12 06:47:13;;;;;;;26.17;18.55;;;5.10;99.90;;;;;;5074115;28;20048;-72
2022/11/12 06:49:38;;;;;;;28.80;19.35;;;5.10;99.90;;;;;;5073214;28;20523;-73
2022/11/12 06:52:04;;;;;;;27.33;18.27;;;5.10;99.90;;;;;;5075229;28;20081;-72
2022/11/12 06:54:30;;;;;;;28.63;19.63;;;5.10;99.90;;;;;;5069903;28;20515;-73
2022/11/12 06:56:55;;;;;;;33.25;21.42;;;5.10;99.90;;;;;;5072002;28;20050;-73
2022/11/12 06:59:21;;;;;;;31.25;20.35;;;5.10;99.90;;;;;;5074183;28;20033;-71
2022/11/12 07:01:46;;;;;;;29.45;19.35;;;5.10;99.90;;;;;;5071636;28;20503;-72
2022/11/12 07:04:12;;;;;;;29.58;19.15;;;5.20;99.90;;;;;;5076253;28;20430;-72
2022/11/12 07:06:37;;;;;;;28.55;17.98;;;5.20;99.90;;;;;;5074843;28;20468;-72
2022/11/12 07:09:04;;;;;;;27.20;18.50;;;5.20;99.90;;;;;;5076172;28;20408;-72
2022/11/12 07:11:29;;;;;;;24.25;18.35;;;5.20;99.90;;;;;;5072207;28;20031;-72
2022/11/12 07:13:55;;;;;;;30.75;20.85;;;5.20;99.90;;;;;;5074804;28;20032;-71
2022/11/12 07:16:21;;;;;;;33.45;20.67;;;5.20;99.90;;;;;;5074737;28;20016;-72
2022/11/12 07:18:48;;;;;;;27.88;18.85;;;5.20;99.90;;;;;;5074366;28;20488;-73
2022/11/12 07:21:17;;;;;;;24.58;18.15;;;5.20;99.90;;;;;;5073574;28;20024;-73
2022/11/12 07:23:43;;;;;;;25.63;18.35;;;5.20;99.90;;;;;;5074092;28;20078;-72
2022/11/12 07:26:17;;;;;;;26.05;18.38;;;5.20;99.90;;;;;;5058547;28;20028;-72
2022/11/12 07:28:44;;;;;;;30.10;19.58;;;5.20;99.90;;;;;;5058358;28;20270;-73
2022/11/12 07:31:12;;;;;;;34.33;21.35;;;5.30;99.90;;;;;;5059402;28;20036;-72
2022/11/12 07:33:38;;;;;;;33.95;19.52;;;5.30;99.90;;;;;;5055402;28;20119;-72
2022/11/12 07:36:09;;;;;;;29.80;20.75;;;5.30;99.90;;;;;;5057157;28;20108;-73
2022/11/12 07:38:36;;;;;;;32.35;21.13;;;5.30;99.90;;;;;;5060133;28;20040;-72
2022/11/12 07:41:10;;;;;;;31.27;19.85;;;5.40;99.90;;;;;;5059612;28;20021;-72
2022/11/12 07:43:37;;;;;;;31.13;20.15;;;5.50;99.90;;;;;;5062771;28;20024;-72
2022/11/12 07:46:15;;;;;;;32.30;21.02;;;5.50;99.90;;;;;;5063090;28;20017;-72
2022/11/12 07:48:41;;;;;;;28.55;21.25;;;5.50;99.90;;;;;;5059086;28;20027;-72
2022/11/12 07:51:12;;;;;;;30.65;22.05;;;5.60;99.90;;;;;;5066279;28;20017;-72
2022/11/12 07:53:37;;;;;;;33.65;21.67;;;5.70;99.90;;;;;;5063659;28;20024;-72
2022/11/12 07:56:18;;;;;;;33.70;23.38;;;5.70;99.90;;;;;;5072298;28;20024;-72
2022/11/12 07:58:44;;;;;;;31.77;22.02;;;5.70;99.90;;;;;;5073057;28;20067;-71
2022/11/12 08:01:30;;;;;;;33.13;22.27;;;5.80;99.90;;;;;;5072775;28;20384;-73
2022/11/12 08:03:56;;;;;;;38.40;24.15;;;5.80;99.90;;;;;;5072817;28;20060;-72
2022/11/12 08:06:22;;;;;;;34.72;24.02;;;5.90;99.90;;;;;;5072794;28;20456;-72
2022/11/12 08:08:51;;;;;;;34.67;24.05;;;5.90;99.90;;;;;;5072295;28;20052;-71
2022/11/12 08:11:17;;;;;;;29.75;21.98;;;6.00;99.90;;;;;;5072979;28;20024;-72
2022/11/12 08:13:43;;;;;;;32.42;22.63;;;6.00;99.90;;;;;;5072526;28;20626;-72
2022/11/12 08:16:08;;;;;;;29.60;21.95;;;6.10;99.90;;;;;;5073501;28;20356;-72
2022/11/12 08:18:34;;;;;;;34.92;23.08;;;6.10;99.90;;;;;;5072706;28;20028;-72
2022/11/12 08:21:05;;;;;;;35.85;25.15;;;6.20;99.90;;;;;;5072363;28;20025;-73
2022/11/12 08:23:31;;;;;;;37.10;24.60;;;6.30;99.90;;;;;;5072447;28;20017;-73
2022/11/12 08:26:01;;;;;;;33.50;23.17;;;6.30;99.90;;;;;;5074178;28;20044;-73
2022/11/12 08:28:28;;;;;;;31.90;22.88;;;6.30;99.90;;;;;;5072408;28;20047;-74
2022/11/12 08:30:57;;;;;;;32.47;21.92;;;6.40;99.90;;;;;;5076788;28;20083;-73
2022/11/12 08:33:23;;;;;;;31.75;22.88;;;6.40;99.90;;;;;;5080839;28;20020;-73
2022/11/12 08:35:49;;;;;;;33.10;23.85;;;7.10;99.90;;;;;;5076396;28;20028;-72
2022/11/12 08:38:15;;;;;;;34.33;24.10;;;6.50;99.90;;;;;;5078670;28;20058;-73
2022/11/12 08:40:41;;;;;;;33.03;23.90;;;6.60;99.90;;;;;;5078098;28;20107;-73
2022/11/12 08:43:08;;;;;;;28.67;21.70;;;6.70;99.90;;;;;;5064290;28;20163;-71
2022/11/12 08:45:36;;;;;;;30.73;21.95;;;6.70;99.90;;;;;;5069390;28;20082;-72
2022/11/12 08:48:08;;;;;;;26.55;20.55;;;6.80;99.90;;;;;;5072459;28;20028;-72
2022/11/12 08:50:34;;;;;;;32.70;23.08;;;6.80;99.90;;;;;;5081765;28;20056;-72
2022/11/12 08:53:05;;;;;;;29.15;20.80;;;6.80;99.90;;;;;;5074188;28;20025;-73
2022/11/12 08:55:32;;;;;;;29.20;20.85;;;6.90;99.90;;;;;;5062937;28;20020;-73
2022/11/12 08:58:01;;;;;;;27.20;20.65;;;6.90;99.90;;;;;;5071860;28;20041;-73
2022/11/12 09:00:39;;;;;;;27.52;20.85;;;7.00;99.90;;;;;;5072140;28;20063;-73
2022/11/12 09:03:06;;;;;;;28.27;20.73;;;7.10;99.90;;;;;;5071819;28;20436;-70
2022/11/12 09:05:34;;;;;;;28.15;19.38;;;7.20;99.90;;;;;;5072257;28;20070;-73
2022/11/12 09:08:02;;;;;;;27.38;18.80;;;7.20;99.90;;;;;;5072407;28;20034;-72
2022/11/12 09:10:28;;;;;;;28.60;18.60;;;7.30;99.90;;;;;;5065041;28;20035;-72
2022/11/12 09:12:54;;;;;;;24.48;18.10;;;7.30;99.90;;;;;;5067748;28;20024;-73
2022/11/12 09:15:20;;;;;;;24.95;19.33;;;7.40;99.90;;;;;;5084183;28;20021;-73
2022/11/12 09:17:46;;;;;;;27.02;19.80;;;7.40;99.90;;;;;;5085241;28;20444;-70
2022/11/12 09:20:12;;;;;;;22.95;18.92;;;7.50;99.90;;;;;;5079684;28;20024;-72
2022/11/12 09:22:37;;;;;;;22.60;18.17;;;7.50;99.90;;;;;;5084150;28;20127;-72
2022/11/12 09:25:03;;;;;;;22.02;16.80;;;7.60;99.90;;;;;;5077674;28;20021;-72
2022/11/12 09:27:29;;;;;;;21.00;17.08;;;7.70;99.90;;;;;;5061495;28;20374;-72
2022/11/12 09:29:55;;;;;;;22.05;17.52;;;8.00;99.90;;;;;;5071925;28;20045;-73
2022/11/12 09:32:23;;;;;;;28.85;18.92;;;7.80;99.90;;;;;;5071590;28;20029;-73
2022/11/12 09:34:49;;;;;;;26.20;19.08;;;7.90;99.90;;;;;;5071855;28;20101;-73
2022/11/12 09:37:14;;;;;;;19.70;16.98;;;8.00;99.90;;;;;;5071822;28;20075;-72
2022/11/12 09:39:40;;;;;;;23.75;18.05;;;8.00;99.90;;;;;;5070995;28;20047;-73
2022/11/12 09:42:08;;;;;;;23.17;17.23;;;8.10;99.90;;;;;;5075714;28;20023;-74
2022/11/12 09:44:37;;;;;;;23.83;16.80;;;8.20;99.90;;;;;;5092304;28;20036;-73
2022/11/12 09:47:16;;;;;;;24.27;18.37;;;8.30;99.90;;;;;;5091486;28;20057;-74
2022/11/12 09:50:11;;;;;;;26.70;18.67;;;8.30;99.90;;;;;;5072940;28;20040;-73
2022/11/12 09:52:39;;;;;;;24.20;18.60;;;8.50;99.90;;;;;;5068804;28;20376;-73
2022/11/12 09:55:11;;;;;;;25.52;16.65;;;8.50;99.90;;;;;;5055443;28;20032;-73
2022/11/12 09:57:37;;;;;;;25.35;19.48;;;8.60;99.90;;;;;;5079552;28;20025;-74
2022/11/12 10:00:16;;;;;;;24.65;19.42;;;8.70;99.90;;;;;;5066804;28;20055;-76
2022/11/12 10:03:15;;;;;;;26.07;20.93;;;8.80;99.90;;;;;;5076373;28;20020;-74
2022/11/12 10:05:55;;;;;;;24.75;19.33;;;8.80;99.90;;;;;;5079350;28;20065;-74
2022/11/12 10:08:51;;;;;;;22.65;18.00;;;9.00;99.90;;;;;;5080957;28;20016;-77
2022/11/12 10:11:28;;;;;;;20.35;17.38;;;9.00;99.90;;;;;;5083180;28;20543;-76
2022/11/12 10:14:14;;;;;;;25.02;17.55;;;9.10;99.90;;;;;;5079324;28;20459;-73
2022/11/12 10:17:00;;;;;;;21.77;16.05;;;9.20;99.90;;;;;;5069602;28;20475;-73
2022/11/12 10:19:52;;;;;;;19.45;16.70;;;9.30;99.90;;;;;;5074332;28;20033;-73
2022/11/12 10:22:36;;;;;;;21.88;15.93;;;9.40;99.90;;;;;;5073058;28;20020;-74
2022/11/12 10:25:18;;;;;;;21.63;16.85;;;9.40;99.90;;;;;;5078971;28;20399;-74
2022/11/12 10:27:45;;;;;;;21.85;16.83;;;9.50;99.90;;;;;;5070153;28;20100;-72
2022/11/12 10:30:17;;;;;;;21.00;15.27;;;9.70;99.90;;;;;;5079386;28;20044;-74
2022/11/12 10:32:45;;;;;;;18.08;15.57;;;9.80;99.90;;;;;;5086304;28;20073;-72
2022/11/12 10:35:16;;;;;;;21.60;15.57;;;9.90;99.90;;;;;;5088069;28;20466;-73
2022/11/12 10:37:45;;;;;;;20.85;14.75;;;9.90;99.90;;;;;;5059545;28;20443;-73
2022/11/12 10:40:20;;;;;;;19.27;15.27;;;10.00;99.90;;;;;;5060815;28;20097;-74
2022/11/12 10:42:56;;;;;;;23.65;16.95;;;10.10;99.90;;;;;;5071949;28;20074;-74
2022/11/12 10:45:22;;;;;;;21.27;15.85;;;10.20;99.90;;;;;;5075144;28;20447;-73
2022/11/12 10:47:49;;;;;;;15.95;14.35;;;10.20;99.90;;;;;;5076969;28;20024;-73
2022/11/12 10:50:41;;;;;;;15.38;13.75;;;10.30;99.90;;;;;;5070683;28;20024;-74
2022/11/12 10:53:10;;;;;;;17.65;15.48;;;10.40;99.90;;;;;;5061696;28;20037;-73
2022/11/12 10:55:52;;;;;;;17.13;13.00;;;10.40;99.90;;;;;;5073524;28;21218;-73
2022/11/12 10:58:19;;;;;;;15.15;13.13;;;10.50;99.90;;;;;;5067147;28;20036;-72
2022/11/12 11:01:00;;;;;;;14.82;12.68;;;10.60;99.90;;;;;;5070836;28;20025;-73
2022/11/12 11:03:32;;;;;;;;;;;10.70;99.90;;;;;;5072368;28;20024;-73
2022/11/12 11:06:00;;;;;;;14.27;11.73;;;10.80;99.90;;;;;;5075842;28;19911;-73
2022/11/12 11:08:34;;;;;;;13.65;12.25;;;10.80;99.90;;;;;;5070249;28;20056;-73
2022/11/12 11:11:20;;;;;;;12.85;11.57;;;10.90;99.90;;;;;;5071682;28;20024;-72
2022/11/12 11:13:48;;;;;;;15.05;12.35;;;11.00;99.90;;;;;;5068519;28;20024;-72
2022/11/12 11:16:17;;;;;;;15.27;11.95;;;11.10;99.90;;;;;;5072372;28;20032;-71
2022/11/12 11:18:49;;;;;;;14.23;10.50;;;11.10;99.90;;;;;;5069185;28;20113;-71
2022/11/12 11:21:17;;;;;;;14.82;11.57;;;11.20;99.90;;;;;;5068142;28;20500;-72
2022/11/12 11:24:03;;;;;;;12.18;10.93;;;11.20;99.90;;;;;;5069633;28;20107;-72
2022/11/12 11:26:52;;;;;;;11.25;10.10;;;11.30;99.90;;;;;;5070883;28;20039;-72
2022/11/12 11:29:40;;;;;;;11.10;9.27;;;11.40;99.90;;;;;;5071276;28;20041;-72
2022/11/12 11:32:21;;;;;;;9.43;8.63;;;11.50;99.90;;;;;;5067660;28;20039;-72
2022/11/12 11:34:50;;;;;;;;;;;11.60;99.90;;;;;;5070361;28;20028;-72
2022/11/12 11:37:32;;;;;;;10.27;9.25;;;11.60;99.90;;;;;;5068734;28;20432;-72
2022/11/12 11:40:51;;;;;;;9.43;8.48;;;11.70;99.90;;;;;;5069604;28;20032;-71
2022/11/12 11:43:49;;;;;;;10.77;9.57;;;11.80;99.90;;;;;;5021844;28;20049;-71
2022/11/12 11:46:19;;;;;;;11.45;8.73;;;11.90;99.90;;;;;;5070581;28;20481;-71
2022/11/12 11:49:19;;;;;;;8.82;8.02;;;11.90;99.90;;;;;;5069532;28;20028;-72
2022/11/12 11:52:01;;;;;;;9.57;8.60;;;12.00;99.90;;;;;;5067517;28;20065;-72
2022/11/12 11:54:53;;;;;;;8.88;8.05;;;12.10;99.90;;;;;;5064383;28;20443;-73
2022/11/12 11:57:27;;;;;;;8.65;7.95;;;12.10;99.90;;;;;;5064851;28;20028;-73
2022/11/12 12:00:08;;;;;;;8.90;8.07;;;12.20;99.90;;;;;;5069295;28;20040;-72
2022/11/12 12:02:52;;;;;;;7.85;7.25;;;12.30;99.90;;;;;;5069809;28;20036;-71
2022/11/12 12:05:23;;;;;;;8.93;8.10;;;12.30;99.90;;;;;;5068312;28;20021;-72
2022/11/12 12:08:03;;;;;;;10.43;7.90;;;12.30;99.90;;;;;;5070335;28;20017;-71
2022/11/12 12:10:31;;;;;;;8.90;8.02;;;12.40;99.90;;;;;;5068714;28;20417;-71
2022/11/12 12:13:08;;;;;;;8.55;7.70;;;12.40;99.90;;;;;;5068850;28;20056;-73
2022/11/12 12:15:47;;;;;;;6.85;6.22;;;12.40;99.90;;;;;;5071015;28;20032;-72
2022/11/12 12:18:44;;;;;;;7.30;6.70;;;12.50;99.90;;;;;;5069328;28;20146;-71
2022/11/12 12:21:21;;;;;;;7.68;6.50;;;12.50;99.90;;;;;;5071885;28;20056;-72
2022/11/12 12:23:55;;;;;;;6.85;5.88;;;12.60;99.90;;;;;;5069612;28;20035;-73
2022/11/12 12:26:46;;;;;;;6.88;6.38;;;12.70;99.90;;;;;;5067324;28;20107;-72
2022/11/12 12:29:22;;;;;;;7.90;7.20;;;12.80;99.90;;;;;;5069550;28;20049;-72
2022/11/12 12:32:12;;;;;;;6.95;6.32;;;12.90;99.90;;;;;;5067882;28;20074;-74
2022/11/12 12:34:47;;;;;;;8.83;7.13;;;12.90;99.90;;;;;;5071246;28;20044;-73
2022/11/12 12:37:34;;;;;;;7.25;6.65;;;13.00;99.90;;;;;;5071391;28;20043;-73
2022/11/12 12:40:17;;;;;;;7.18;6.57;;;13.00;99.90;;;;;;5068218;28;20384;-74
2022/11/12 12:42:46;;;;;;;6.78;6.07;;;13.10;99.90;;;;;;5070254;28;20043;-72
2022/11/12 12:45:33;;;;;;;6.75;5.90;;;13.30;99.90;;;;;;5071938;28;20032;-73
2022/11/12 12:48:04;;;;;;;6.18;5.57;;;13.30;99.90;;;;;;5070381;28;20039;-73
2022/11/12 12:50:30;;;;;;;7.20;5.38;;;13.40;99.90;;;;;;5071079;28;20021;-73
2022/11/12 12:53:14;;;;;;;7.47;5.45;;;13.50;99.90;;;;;;5073898;28;20025;-72
2022/11/12 12:55:42;;;;;;;6.18;5.57;;;13.50;99.90;;;;;;5063812;28;20033;-72
2022/11/12 12:58:28;;;;;;;5.93;5.43;;;13.60;99.90;;;;;;5056190;28;20499;-72
2022/11/12 13:01:00;;;;;;;5.70;5.20;;;13.70;99.90;;;;;;5052440;28;20071;-73
2022/11/12 13:03:43;;;;;;;6.53;5.93;;;13.70;99.90;;;;;;5084240;28;20099;-73
2022/11/12 13:06:44;;;;;;;6.10;5.50;;;13.70;99.90;;;;;;5089163;28;20073;-73
2022/11/12 13:09:15;;;;;;;7.70;5.60;;;13.70;99.90;;;;;;5083027;28;20024;-72
2022/11/12 13:14:34;;;;;;;6.18;5.05;;;13.80;99.90;;;;;;5089182;28;20035;-72
2022/11/12 13:17:06;;;;;;;5.57;5.03;;;13.80;99.90;;;;;;5085380;28;20020;-73
2022/11/12 13:19:52;;;;;;;5.15;4.75;;;13.80;99.90;;;;;;5089131;28;20028;-73
2022/11/12 13:22:17;;;;;;;6.00;5.50;;;13.80;99.90;;;;;;5084275;28;20563;-73
2022/11/12 13:25:05;;;;;;;8.93;6.78;;;13.90;99.90;;;;;;5088217;28;20119;-73